createdAt,value
2018-11-27T00:00:23.023Z,2.80
2018-11-27T00:02:53.107Z,2.80
2018-11-27T00:05:21.739Z,2.80
2018-11-27T00:07:50.336Z,2.80
2018-11-27T00:10:19.004Z,2.80
2018-11-27T00:12:47.627Z,2.80
2018-11-27T00:15:16.287Z,2.80
2018-11-27T00:17:44.901Z,2.80
2018-11-27T00:20:14.204Z,2.80
2018-11-27T00:22:42.959Z,2.80
2018-11-27T00:25:14.570Z,2.80
2018-11-27T00:27:43.224Z,2.80
2018-11-27T00:30:12.783Z,2.70
2018-11-27T00:32:41.451Z,2.70
2018-11-27T00:35:14.019Z,2.70
2018-11-27T00:37:42.670Z,2.60
2018-11-27T00:40:14.216Z,2.60
2018-11-27T00:42:42.915Z,2.60
2018-11-27T00:45:12.542Z,2.50
2018-11-27T00:47:41.404Z,2.50
2018-11-27T00:50:13.912Z,2.50
2018-11-27T00:52:42.509Z,2.50
2018-11-27T00:55:12.176Z,2.60
2018-11-27T00:57:41.618Z,2.50
2018-11-27T01:00:17.981Z,2.60
2018-11-27T01:02:46.744Z,2.50
2018-11-27T01:05:17.468Z,2.50
2018-11-27T01:07:46.129Z,2.60
2018-11-27T01:10:22.475Z,2.50
2018-11-27T01:12:51.196Z,2.50
2018-11-27T01:15:19.881Z,2.60
2018-11-27T01:17:50.570Z,2.50
2018-11-27T01:20:19.916Z,2.50
2018-11-27T01:22:48.615Z,2.50
2018-11-27T01:25:17.294Z,2.50
2018-11-27T01:27:45.906Z,2.50
2018-11-27T01:30:16.596Z,2.50
2018-11-27T01:32:45.424Z,2.50
2018-11-27T01:35:16.045Z,2.50
2018-11-27T01:37:44.855Z,2.50
2018-11-27T01:40:16.335Z,2.50
2018-11-27T01:42:45.227Z,2.40
2018-11-27T01:45:14.659Z,2.40
2018-11-27T01:47:43.290Z,2.40
2018-11-27T01:50:12.940Z,2.30
2018-11-27T01:52:41.652Z,2.30
2018-11-27T01:55:13.857Z,2.30
2018-11-27T01:57:42.551Z,2.30
2018-11-27T02:00:16.722Z,2.30
2018-11-27T02:02:45.351Z,2.20
2018-11-27T02:05:13.961Z,2.20
2018-11-27T02:07:42.586Z,2.10
2018-11-27T02:10:12.354Z,2.10
2018-11-27T02:12:42.118Z,2.00
2018-11-27T02:15:26.512Z,2.00
2018-11-27T02:17:55.212Z,2.00
2018-11-27T02:20:23.873Z,2.00
2018-11-27T02:22:52.567Z,2.00
2018-11-27T02:25:22.178Z,2.00
2018-11-27T02:27:50.990Z,2.00
2018-11-27T02:30:20.791Z,1.90
2018-11-27T02:32:49.564Z,2.00
2018-11-27T02:35:19.914Z,1.90
2018-11-27T02:37:50.536Z,1.90
2018-11-27T02:40:19.330Z,2.00
2018-11-27T02:42:47.986Z,2.00
2018-11-27T02:45:17.885Z,2.00
2018-11-27T02:47:47.127Z,1.90
2018-11-27T02:50:17.141Z,1.90
2018-11-27T02:52:45.769Z,1.90
2018-11-27T02:55:15.241Z,1.90
2018-11-27T02:57:43.869Z,2.00
2018-11-27T03:00:15.306Z,1.90
2018-11-27T03:02:43.993Z,1.90
2018-11-27T03:05:19.203Z,1.90
2018-11-27T03:07:47.842Z,1.90
2018-11-27T03:10:16.711Z,1.90
2018-11-27T03:12:45.364Z,1.90
2018-11-27T03:15:14.991Z,1.90
2018-11-27T03:17:43.638Z,1.90
2018-11-27T03:20:13.366Z,1.90
2018-11-27T03:22:42.041Z,1.80
2018-11-27T03:25:14.087Z,1.80
2018-11-27T03:27:42.931Z,1.90
2018-11-27T03:30:17.462Z,1.90
2018-11-27T03:32:46.107Z,1.90
2018-11-27T03:35:17.721Z,1.90
2018-11-27T03:37:47.315Z,1.90
2018-11-27T03:40:19.085Z,1.90
2018-11-27T03:42:47.719Z,1.90
2018-11-27T03:45:16.878Z,1.90
2018-11-27T03:47:45.561Z,1.90
2018-11-27T03:50:16.044Z,1.90
2018-11-27T03:52:44.676Z,1.90
2018-11-27T03:55:13.891Z,2.00
2018-11-27T03:57:42.529Z,1.90
2018-11-27T04:00:19.073Z,2.00
2018-11-27T04:02:49.792Z,2.00
2018-11-27T04:05:18.455Z,2.00
2018-11-27T04:07:47.045Z,2.00
2018-11-27T04:10:16.895Z,2.00
2018-11-27T04:12:45.560Z,1.90
2018-11-27T04:15:14.386Z,1.90
2018-11-27T04:17:43.029Z,1.90
2018-11-27T04:20:12.542Z,2.00
2018-11-27T04:22:41.750Z,2.00
2018-11-27T04:25:12.649Z,2.00
2018-11-27T04:27:41.289Z,2.00
2018-11-27T04:30:14.331Z,1.90
2018-11-27T04:32:44.255Z,2.00
2018-11-27T04:35:22.058Z,2.00
2018-11-27T04:37:50.739Z,2.00
2018-11-27T04:40:21.501Z,2.00
2018-11-27T04:42:50.308Z,2.00
2018-11-27T04:45:21.054Z,2.00
2018-11-27T04:47:49.762Z,2.00
2018-11-27T04:50:18.767Z,2.00
2018-11-27T04:52:47.439Z,2.00
2018-11-27T04:55:18.117Z,2.10
2018-11-27T04:57:47.753Z,2.00
2018-11-27T05:00:21.394Z,2.10
2018-11-27T05:02:50.047Z,2.10
2018-11-27T05:05:18.952Z,2.10
2018-11-27T05:07:47.712Z,2.10
2018-11-27T05:10:18.779Z,2.10
2018-11-27T05:12:47.505Z,2.00
2018-11-27T05:15:19.831Z,2.10
2018-11-27T05:17:49.500Z,2.10
2018-11-27T05:20:18.131Z,2.10
2018-11-27T05:22:46.782Z,2.10
2018-11-27T05:25:17.149Z,2.00
2018-11-27T05:27:48.744Z,2.10
2018-11-27T05:30:21.281Z,2.10
2018-11-27T05:32:49.927Z,2.10
2018-11-27T05:35:23.560Z,2.10
2018-11-27T05:37:52.264Z,2.10
2018-11-27T05:40:21.963Z,2.10
2018-11-27T05:42:52.803Z,2.10
2018-11-27T05:45:22.367Z,2.10
2018-11-27T05:47:51.027Z,2.10
2018-11-27T05:50:19.938Z,2.10
2018-11-27T05:52:48.568Z,2.10
2018-11-27T05:55:17.628Z,2.10
2018-11-27T05:57:48.336Z,2.00
2018-11-27T06:00:19.003Z,2.00
2018-11-27T06:02:48.561Z,1.90
2018-11-27T06:05:18.192Z,1.90
2018-11-27T06:07:47.150Z,1.90
2018-11-27T06:10:16.980Z,2.00
2018-11-27T06:12:45.643Z,2.00
2018-11-27T06:15:16.329Z,2.00
2018-11-27T06:17:45.354Z,2.00
2018-11-27T06:20:17.720Z,2.00
2018-11-27T06:22:46.483Z,2.00
2018-11-27T06:25:19.095Z,2.00
2018-11-27T06:27:49.208Z,2.10
2018-11-27T06:30:18.905Z,2.00
2018-11-27T06:32:47.568Z,2.00
2018-11-27T06:35:17.685Z,2.00
2018-11-27T06:37:46.311Z,2.00
2018-11-27T06:40:16.180Z,2.10
2018-11-27T06:42:44.851Z,2.40
2018-11-27T06:45:17.343Z,2.40
2018-11-27T06:47:46.804Z,2.30
2018-11-27T06:50:15.933Z,2.30
2018-11-27T06:52:44.583Z,2.30
2018-11-27T06:55:14.979Z,2.20
2018-11-27T06:57:43.647Z,2.20
2018-11-27T07:00:20.238Z,2.20
2018-11-27T07:02:48.905Z,2.20
2018-11-27T07:05:17.589Z,2.10
2018-11-27T07:07:46.211Z,2.20
2018-11-27T07:10:17.330Z,2.20
2018-11-27T07:12:46.579Z,2.10
2018-11-27T07:15:16.566Z,2.10
2018-11-27T07:17:45.188Z,2.10
2018-11-27T07:20:13.982Z,2.10
2018-11-27T07:22:42.656Z,2.20
2018-11-27T07:25:12.343Z,2.10
2018-11-27T07:27:41.836Z,2.20
2018-11-27T07:30:14.675Z,2.10
2018-11-27T07:32:43.348Z,2.10
2018-11-27T07:35:13.731Z,2.10
2018-11-27T07:37:42.429Z,2.20
2018-11-27T07:40:14.121Z,2.20
2018-11-27T07:42:42.905Z,2.20
2018-11-27T07:45:14.581Z,2.20
2018-11-27T07:47:43.284Z,2.20
2018-11-27T07:50:12.540Z,2.30
2018-11-27T07:52:41.319Z,2.20
2018-11-27T07:55:12.794Z,2.20
2018-11-27T07:57:41.430Z,2.20
2018-11-27T08:00:15.753Z,2.20
2018-11-27T08:02:45.419Z,2.20
2018-11-27T08:05:17.952Z,2.20
2018-11-27T08:07:48.886Z,2.30
2018-11-27T08:10:19.636Z,2.30
2018-11-27T08:12:48.255Z,2.40
2018-11-27T08:15:19.999Z,2.40
2018-11-27T08:17:48.713Z,2.40
2018-11-27T08:20:20.399Z,2.40
2018-11-27T08:22:49.015Z,2.50
2018-11-27T08:25:17.670Z,2.50
2018-11-27T08:27:46.287Z,2.50
2018-11-27T08:30:15.914Z,2.50
2018-11-27T08:32:44.667Z,2.60
2018-11-27T08:35:29.016Z,2.60
2018-11-27T08:37:58.637Z,2.60
2018-11-27T08:40:29.350Z,2.60
2018-11-27T08:42:58.029Z,2.70
2018-11-27T08:45:26.644Z,2.70
2018-11-27T08:47:55.960Z,2.70
2018-11-27T08:50:26.573Z,2.80
2018-11-27T08:53:00.144Z,2.90
2018-11-27T08:55:37.672Z,2.90
2018-11-27T08:58:09.172Z,3.00
2018-11-27T09:00:37.784Z,3.10
2018-11-27T09:03:06.581Z,3.10
2018-11-27T09:05:35.177Z,3.10
2018-11-27T09:08:03.907Z,3.00
2018-11-27T09:10:32.547Z,3.00
2018-11-27T09:13:01.567Z,3.00
2018-11-27T09:15:30.077Z,2.90
2018-11-27T09:18:00.606Z,3.00
2018-11-27T09:20:29.309Z,2.90
2018-11-27T09:22:57.978Z,2.90
2018-11-27T09:25:26.609Z,2.80
2018-11-27T09:27:55.244Z,2.80
2018-11-27T09:30:25.048Z,2.80
2018-11-27T09:32:54.231Z,2.70
2018-11-27T09:35:22.928Z,2.80
2018-11-27T09:37:51.571Z,2.70
2018-11-27T09:40:20.848Z,2.70
2018-11-27T09:42:49.540Z,2.70
2018-11-27T09:45:21.996Z,2.70
2018-11-27T09:47:51.717Z,2.70
2018-11-27T09:50:20.348Z,2.70
2018-11-27T09:52:49.055Z,2.70
2018-11-27T09:55:18.748Z,2.70
2018-11-27T09:57:47.440Z,2.70
2018-11-27T10:00:20.106Z,2.70
2018-11-27T10:02:48.913Z,2.60
2018-11-27T10:05:17.589Z,2.60
2018-11-27T10:07:46.284Z,2.60
2018-11-27T10:10:16.396Z,2.50
2018-11-27T10:12:45.022Z,2.50
2018-11-27T10:15:16.644Z,2.60
2018-11-27T10:17:46.333Z,2.70
2018-11-27T10:20:17.889Z,2.60
2018-11-27T10:22:46.585Z,2.50
2018-11-27T10:25:15.220Z,2.50
2018-11-27T10:27:44.316Z,2.60
2018-11-27T10:30:14.779Z,2.60
2018-11-27T10:32:43.410Z,2.60
2018-11-27T10:35:14.158Z,2.60
2018-11-27T10:37:42.780Z,2.60
2018-11-27T10:40:11.407Z,2.70
2018-11-27T10:42:40.128Z,2.80
2018-11-27T10:45:13.384Z,2.80
2018-11-27T10:47:42.117Z,2.80
2018-11-27T10:50:11.828Z,2.70
2018-11-27T10:52:41.951Z,2.70
2018-11-27T10:55:12.680Z,2.70
2018-11-27T10:57:41.366Z,2.80
2018-11-27T11:00:19.356Z,2.80
2018-11-27T11:02:53.325Z,2.90
2018-11-27T11:05:25.844Z,2.80
2018-11-27T11:07:54.496Z,2.80
2018-11-27T11:10:23.150Z,2.90
2018-11-27T11:12:51.884Z,2.80
2018-11-27T11:15:20.673Z,2.80
2018-11-27T11:17:49.360Z,2.80
2018-11-27T11:20:18.152Z,2.90
2018-11-27T11:22:46.871Z,2.90
2018-11-27T11:25:16.740Z,3.00
2018-11-27T11:27:46.508Z,2.90
2018-11-27T11:30:16.366Z,3.00
2018-11-27T11:32:45.068Z,3.00
2018-11-27T11:35:13.948Z,2.90
2018-11-27T11:37:42.733Z,2.90
2018-11-27T11:40:15.283Z,2.90
2018-11-27T11:42:44.319Z,2.90
2018-11-27T11:45:13.342Z,2.90
2018-11-27T11:47:42.123Z,3.00
2018-11-27T11:50:21.713Z,3.00
2018-11-27T11:52:56.793Z,2.90
2018-11-27T11:55:32.136Z,2.90
2018-11-27T11:58:01.143Z,2.90
2018-11-27T12:00:33.711Z,2.90
2018-11-27T12:03:02.401Z,2.90
2018-11-27T12:05:31.036Z,2.90
2018-11-27T12:08:00.045Z,2.90
2018-11-27T12:10:28.922Z,3.00
2018-11-27T12:12:57.619Z,3.00
2018-11-27T12:15:26.233Z,3.00
2018-11-27T12:17:55.256Z,2.90
2018-11-27T12:20:24.066Z,3.00
2018-11-27T12:22:53.467Z,2.90
2018-11-27T12:25:24.456Z,2.90
2018-11-27T12:27:51.112Z,2.90
2018-11-27T12:30:23.359Z,2.80
2018-11-27T12:32:52.196Z,2.80
2018-11-27T12:35:21.394Z,2.80
2018-11-27T12:37:50.089Z,2.90
2018-11-27T12:40:22.727Z,2.90
2018-11-27T12:42:51.851Z,2.80
2018-11-27T12:45:24.565Z,2.70
2018-11-27T12:47:53.616Z,2.80
2018-11-27T12:50:30.079Z,2.70
2018-11-27T12:52:58.694Z,2.70
2018-11-27T12:55:27.360Z,2.80
2018-11-27T12:57:56.266Z,2.80
2018-11-27T13:00:25.815Z,2.80
2018-11-27T13:02:54.479Z,2.80
2018-11-27T13:05:25.730Z,2.80
2018-11-27T13:08:00.554Z,2.90
2018-11-27T13:10:29.771Z,2.90
2018-11-27T13:12:58.435Z,2.90
2018-11-27T13:15:27.064Z,2.90
2018-11-27T13:17:55.670Z,2.80
2018-11-27T13:20:24.404Z,2.80
2018-11-27T13:22:53.007Z,2.90
2018-11-27T13:25:23.275Z,2.80
2018-11-27T13:27:54.088Z,2.80
2018-11-27T13:30:43.978Z,2.90
2018-11-27T13:33:17.927Z,2.90
2018-11-27T13:35:46.587Z,3.00
2018-11-27T13:38:15.200Z,3.10
2018-11-27T13:40:43.860Z,3.00
2018-11-27T13:43:22.550Z,3.00
2018-11-27T13:45:51.201Z,2.90
2018-11-27T13:48:19.869Z,2.90
2018-11-27T13:50:48.532Z,2.90
2018-11-27T13:53:17.187Z,2.90
2018-11-27T13:55:45.845Z,2.90
2018-11-27T13:58:14.446Z,2.90
2018-11-27T14:00:43.114Z,2.90
2018-11-27T14:03:11.719Z,2.90
2018-11-27T14:05:40.346Z,3.00
2018-11-27T14:08:09.672Z,2.90
2018-11-27T14:10:38.960Z,2.90
2018-11-27T14:13:08.478Z,2.90
2018-11-27T14:15:37.483Z,2.90
2018-11-27T14:18:06.748Z,2.90
2018-11-27T14:20:35.399Z,2.90
2018-11-27T14:23:04.120Z,2.90
2018-11-27T14:25:32.896Z,2.90
2018-11-27T14:28:01.577Z,2.90
2018-11-27T14:30:30.248Z,2.80
2018-11-27T14:32:58.856Z,2.90
2018-11-27T14:35:27.499Z,2.90
2018-11-27T14:37:56.256Z,2.90
2018-11-27T14:40:27.607Z,3.00
2018-11-27T14:42:56.266Z,3.20
2018-11-27T14:45:26.022Z,3.20
2018-11-27T14:47:56.897Z,3.20
2018-11-27T14:50:25.560Z,3.20
2018-11-27T14:52:54.232Z,3.20
2018-11-27T14:55:29.085Z,3.10
2018-11-27T14:57:57.879Z,3.10
2018-11-27T15:00:27.160Z,3.00
2018-11-27T15:02:55.957Z,3.00
2018-11-27T15:05:39.454Z,3.00
2018-11-27T15:08:09.448Z,2.90
2018-11-27T15:10:38.132Z,2.90
2018-11-27T15:13:07.718Z,2.90
2018-11-27T15:15:36.412Z,2.80
2018-11-27T15:18:06.003Z,2.90
2018-11-27T15:20:34.635Z,2.90
2018-11-27T15:23:03.298Z,2.80
2018-11-27T15:25:32.034Z,2.80
2018-11-27T15:28:00.687Z,2.70
2018-11-27T15:30:31.130Z,2.70
2018-11-27T15:33:02.105Z,2.70
2018-11-27T15:35:30.717Z,2.70
2018-11-27T15:37:59.735Z,2.70
2018-11-27T15:40:29.449Z,2.70
2018-11-27T15:42:58.343Z,2.60
2018-11-27T15:45:27.911Z,2.60
2018-11-27T15:47:56.866Z,2.60
2018-11-27T15:50:25.525Z,2.50
2018-11-27T15:52:54.460Z,2.50
2018-11-27T15:55:25.523Z,2.50
2018-11-27T15:57:55.658Z,2.50
2018-11-27T16:00:24.315Z,2.50
2018-11-27T16:02:52.955Z,2.50
2018-11-27T16:05:21.559Z,2.60
2018-11-27T16:07:50.169Z,2.50
2018-11-27T16:10:19.530Z,2.50
2018-11-27T16:12:48.175Z,2.50
2018-11-27T16:15:18.063Z,2.50
2018-11-27T16:17:47.068Z,2.50
2018-11-27T16:20:17.744Z,2.50
2018-11-27T16:22:47.351Z,2.50
2018-11-27T16:25:16.958Z,2.40
2018-11-27T16:27:45.746Z,2.50
2018-11-27T16:30:22.193Z,2.50
2018-11-27T16:32:51.006Z,2.50
2018-11-27T16:35:19.658Z,2.50
2018-11-27T16:37:49.679Z,2.50
2018-11-27T16:40:19.451Z,2.50
2018-11-27T16:42:48.081Z,2.50
2018-11-27T16:45:18.901Z,2.50
2018-11-27T16:47:47.669Z,2.50
2018-11-27T16:50:22.983Z,2.50
2018-11-27T16:52:51.719Z,2.50
2018-11-27T16:55:22.179Z,2.50
2018-11-27T16:57:50.886Z,2.50
2018-11-27T17:00:24.542Z,2.40
2018-11-27T17:02:54.207Z,2.40
2018-11-27T17:05:22.855Z,2.40
2018-11-27T17:07:51.543Z,2.40
2018-11-27T17:10:20.891Z,2.40
2018-11-27T17:12:50.950Z,2.30
2018-11-27T17:15:20.716Z,2.30
2018-11-27T17:17:49.381Z,2.30
2018-11-27T17:20:19.575Z,2.30
2018-11-27T17:22:48.216Z,2.20
2018-11-27T17:25:16.848Z,2.20
2018-11-27T17:27:45.612Z,2.20
2018-11-27T17:30:19.068Z,2.30
2018-11-27T17:32:47.947Z,2.30
2018-11-27T17:35:16.572Z,2.30
2018-11-27T17:37:45.215Z,2.30
2018-11-27T17:40:14.446Z,2.20
2018-11-27T17:42:43.152Z,2.20
2018-11-27T17:45:15.691Z,2.20
2018-11-27T17:47:45.014Z,2.20
2018-11-27T17:50:15.068Z,2.20
2018-11-27T17:52:43.729Z,2.20
2018-11-27T17:55:13.185Z,2.20
2018-11-27T17:57:41.866Z,2.20
2018-11-27T18:00:20.551Z,2.20
2018-11-27T18:02:56.373Z,2.20
2018-11-27T18:05:24.988Z,2.20
2018-11-27T18:07:53.665Z,2.20
2018-11-27T18:10:22.293Z,2.40
2018-11-27T18:12:51.005Z,2.30
2018-11-27T18:15:20.869Z,2.30
2018-11-27T18:17:49.571Z,2.30
2018-11-27T18:20:18.267Z,2.30
2018-11-27T18:22:47.007Z,2.30
2018-11-27T18:25:17.845Z,2.30
2018-11-27T18:27:47.332Z,2.30
2018-11-27T18:30:18.083Z,2.30
2018-11-27T18:32:46.853Z,2.30
2018-11-27T18:35:16.491Z,2.30
2018-11-27T18:37:45.307Z,2.30
2018-11-27T18:40:14.752Z,2.30
2018-11-27T18:42:43.799Z,2.30
2018-11-27T18:45:22.923Z,2.30
2018-11-27T18:47:51.563Z,2.30
2018-11-27T18:50:20.579Z,2.30
2018-11-27T18:52:49.237Z,2.30
2018-11-27T18:55:17.888Z,2.30
2018-11-27T18:57:47.347Z,2.30
2018-11-27T19:00:20.685Z,2.30
2018-11-27T19:02:49.406Z,2.30
2018-11-27T19:05:18.068Z,2.30
2018-11-27T19:07:46.760Z,2.30
2018-11-27T19:10:17.384Z,2.30
2018-11-27T19:12:46.491Z,2.30
2018-11-27T19:15:19.857Z,2.30
2018-11-27T19:17:49.743Z,2.30
2018-11-27T19:20:18.397Z,2.30
2018-11-27T19:22:47.044Z,2.30
2018-11-27T19:25:16.340Z,2.30
2018-11-27T19:27:44.951Z,2.30
2018-11-27T19:30:16.129Z,2.30
2018-11-27T19:32:44.503Z,2.30
2018-11-27T19:35:14.255Z,2.30
2018-11-27T19:37:43.049Z,2.30
2018-11-27T19:40:12.919Z,2.30
2018-11-27T19:42:41.573Z,2.30
2018-11-27T19:45:12.685Z,2.30
2018-11-27T19:47:41.612Z,2.30
2018-11-27T19:50:11.376Z,2.30
2018-11-27T19:52:40.377Z,2.30
2018-11-27T19:55:10.641Z,2.30
2018-11-27T19:57:39.300Z,2.30
2018-11-27T20:00:17.633Z,2.30
2018-11-27T20:02:46.272Z,2.30
2018-11-27T20:05:17.008Z,2.30
2018-11-27T20:07:45.732Z,2.20
2018-11-27T20:10:14.877Z,2.20
2018-11-27T20:12:43.542Z,2.20
2018-11-27T20:15:21.072Z,2.20
2018-11-27T20:17:50.456Z,2.20
2018-11-27T20:20:21.241Z,2.20
2018-11-27T20:22:50.011Z,2.20
2018-11-27T20:25:19.791Z,2.20
2018-11-27T20:27:48.464Z,2.10
2018-11-27T20:30:18.832Z,2.10
2018-11-27T20:32:51.868Z,2.10
2018-11-27T20:35:20.517Z,2.10
2018-11-27T20:37:50.206Z,2.10
2018-11-27T20:40:19.413Z,2.10
2018-11-27T20:42:48.202Z,2.10
2018-11-27T20:45:19.591Z,2.10
2018-11-27T20:47:48.859Z,2.20
2018-11-27T20:50:21.332Z,2.20
2018-11-27T20:52:49.980Z,2.30
2018-11-27T20:55:18.919Z,2.30
2018-11-27T20:57:52.975Z,2.30
2018-11-27T21:00:23.810Z,2.40
2018-11-27T21:02:53.932Z,2.30
2018-11-27T21:05:22.541Z,2.30
2018-11-27T21:07:51.170Z,2.30
2018-11-27T21:10:20.658Z,2.30
2018-11-27T21:12:49.327Z,2.30
2018-11-27T21:15:18.955Z,2.30
2018-11-27T21:17:47.583Z,2.30
2018-11-27T21:20:16.881Z,2.30
2018-11-27T21:22:45.504Z,2.30
2018-11-27T21:25:18.019Z,2.30
2018-11-27T21:27:49.124Z,2.30
2018-11-27T21:30:18.262Z,2.20
2018-11-27T21:32:46.924Z,2.20
2018-11-27T21:35:16.397Z,2.20
2018-11-27T21:37:45.079Z,2.30
2018-11-27T21:40:14.749Z,2.30
2018-11-27T21:42:43.447Z,2.20
2018-11-27T21:45:14.191Z,2.10
2018-11-27T21:47:42.940Z,2.10
2018-11-27T21:50:13.657Z,2.10
2018-11-27T21:52:42.331Z,2.00
2018-11-27T21:55:14.616Z,2.00
2018-11-27T21:57:43.391Z,2.00
2018-11-27T22:00:16.035Z,2.00
2018-11-27T22:02:44.825Z,1.90
2018-11-27T22:05:13.787Z,1.90
2018-11-27T22:07:42.586Z,1.90
2018-11-27T22:10:13.111Z,1.80
2018-11-27T22:12:42.759Z,1.80
2018-11-27T22:15:15.975Z,1.80
2018-11-27T22:17:44.703Z,1.80
2018-11-27T22:20:13.344Z,1.80
2018-11-27T22:22:41.987Z,1.80
2018-11-27T22:25:11.493Z,1.80
2018-11-27T22:27:40.222Z,1.80
2018-11-27T22:30:11.284Z,1.80
2018-11-27T22:32:40.468Z,1.70
2018-11-27T22:35:09.367Z,1.70
2018-11-27T22:37:37.980Z,1.70
2018-11-27T22:40:14.176Z,1.70
2018-11-27T22:42:42.965Z,1.70
2018-11-27T22:45:13.520Z,1.70
2018-11-27T22:47:42.195Z,1.70
2018-11-27T22:50:13.604Z,1.60
2018-11-27T22:52:42.256Z,1.60
2018-11-27T22:55:11.162Z,1.50
2018-11-27T22:57:39.876Z,1.50
2018-11-27T23:00:30.783Z,1.40
2018-11-27T23:02:59.563Z,1.20
2018-11-27T23:05:28.216Z,1.10
2018-11-27T23:07:56.943Z,0.90
2018-11-27T23:10:33.549Z,0.80
2018-11-27T23:13:02.319Z,0.60
2018-11-27T23:15:30.948Z,0.50
2018-11-27T23:17:59.575Z,0.40
2018-11-27T23:20:28.216Z,0.30
2018-11-27T23:22:56.870Z,0.30
2018-11-27T23:25:25.505Z,0.20
2018-11-27T23:27:54.187Z,0.10
2018-11-27T23:30:24.616Z,0.00
2018-11-27T23:32:53.305Z,-0.10
2018-11-27T23:35:22.009Z,-0.20
2018-11-27T23:37:50.671Z,-0.20
2018-11-27T23:40:20.227Z,-0.30
2018-11-27T23:42:49.008Z,-0.40
2018-11-27T23:45:19.005Z,-0.50
2018-11-27T23:47:47.684Z,-0.60
2018-11-27T23:50:17.587Z,-0.60
2018-11-27T23:52:46.440Z,-0.70
2018-11-27T23:55:15.742Z,-0.70
2018-11-27T23:57:44.684Z,-0.80
